createdAt,value
2019-05-20T00:00:52.888Z,20.10
2019-05-20T00:03:23.710Z,25.43
2019-05-20T00:05:55.266Z,18.40
2019-05-20T00:08:26.034Z,19.20
2019-05-20T00:10:56.529Z,18.50
2019-05-20T00:13:27.055Z,17.23
2019-05-20T00:15:57.675Z,18.83
2019-05-20T00:18:28.115Z,21.23
2019-05-20T00:20:58.637Z,16.60
2019-05-20T00:23:29.057Z,21.33
2019-05-20T00:25:59.631Z,23.07
2019-05-20T00:28:30.116Z,15.67
2019-05-20T00:31:00.545Z,18.97
2019-05-20T00:33:30.975Z,16.67
2019-05-20T00:36:01.395Z,16.93
2019-05-20T00:38:31.826Z,18.27
2019-05-20T00:41:02.557Z,20.30
2019-05-20T00:43:32.989Z,16.63
2019-05-20T00:46:03.512Z,17.30
2019-05-20T00:48:33.944Z,16.00
2019-05-20T00:51:05.391Z,16.33
2019-05-20T00:53:35.820Z,18.13
2019-05-20T00:56:06.350Z,20.40
2019-05-20T00:58:36.924Z,17.80
2019-05-20T01:01:06.591Z,19.83
2019-05-20T01:03:37.014Z,19.57
2019-05-20T01:06:07.598Z,22.40
2019-05-20T01:08:38.235Z,17.10
2019-05-20T01:11:08.704Z,18.50
2019-05-20T01:13:39.322Z,17.73
2019-05-20T01:16:10.047Z,19.23
2019-05-20T01:18:40.519Z,15.47
2019-05-20T01:21:11.037Z,14.03
2019-05-20T01:23:41.443Z,17.00
2019-05-20T01:26:11.886Z,17.57
2019-05-20T01:28:42.457Z,17.97
2019-05-20T01:31:13.452Z,19.20
2019-05-20T01:33:43.880Z,22.17
2019-05-20T01:36:14.451Z,19.73
2019-05-20T01:38:45.040Z,18.40
2019-05-20T01:41:15.466Z,15.30
2019-05-20T01:43:45.895Z,15.07
2019-05-20T01:46:16.319Z,19.90
2019-05-20T01:48:46.746Z,16.10
2019-05-20T01:51:18.213Z,14.50
2019-05-20T01:53:48.627Z,15.60
2019-05-20T01:56:19.050Z,19.57
2019-05-20T01:58:49.478Z,20.90
2019-05-20T02:01:19.966Z,18.67
2019-05-20T02:03:50.438Z,18.53
2019-05-20T02:06:20.967Z,17.47
2019-05-20T02:08:51.806Z,20.50
2019-05-20T02:11:22.433Z,20.37
2019-05-20T02:14:15.082Z,17.53
2019-05-20T02:16:45.512Z,20.43
2019-05-20T02:19:15.948Z,17.57
2019-05-20T02:21:46.471Z,19.77
2019-05-20T02:24:16.893Z,15.57
2019-05-20T02:26:47.320Z,18.27
2019-05-20T02:29:17.746Z,26.20
2019-05-20T02:31:48.229Z,16.53
2019-05-20T02:34:18.703Z,13.63
2019-05-20T02:36:49.132Z,16.70
2019-05-20T02:39:19.558Z,16.97
2019-05-20T02:41:49.992Z,16.30
2019-05-20T02:44:20.515Z,18.43
2019-05-20T02:46:51.153Z,15.97
2019-05-20T02:49:21.576Z,15.80
2019-05-20T02:51:51.999Z,17.30
2019-05-20T02:54:22.431Z,26.00
2019-05-20T02:56:52.976Z,14.90
2019-05-20T02:59:23.484Z,18.90
2019-05-20T03:01:54.084Z,21.53
2019-05-20T03:04:24.587Z,18.77
2019-05-20T03:06:55.142Z,19.87
2019-05-20T03:09:25.860Z,19.93
2019-05-20T03:11:56.337Z,19.03
2019-05-20T03:14:26.766Z,24.10
2019-05-20T03:16:57.195Z,17.10
2019-05-20T03:19:27.921Z,19.00
2019-05-20T03:21:59.991Z,18.93
2019-05-20T03:24:30.416Z,18.70
2019-05-20T03:27:00.856Z,22.60
2019-05-20T03:29:31.375Z,20.03
2019-05-20T03:32:01.806Z,18.70
2019-05-20T03:34:47.858Z,21.63
2019-05-20T03:37:04.499Z,19.80
2019-05-20T03:39:35.135Z,25.63
2019-05-20T03:42:05.661Z,24.70
2019-05-20T03:44:36.086Z,23.73
2019-05-20T03:47:06.526Z,20.27
2019-05-20T03:49:36.939Z,21.67
2019-05-20T03:52:07.372Z,21.30
2019-05-20T03:54:38.004Z,23.03
2019-05-20T03:57:08.630Z,23.73
2019-05-20T03:59:39.075Z,22.27
2019-05-20T04:02:09.494Z,25.77
2019-05-20T04:04:39.921Z,23.77
2019-05-20T04:07:10.384Z,28.73
2019-05-20T04:09:40.912Z,23.57
2019-05-20T04:12:11.397Z,26.67
2019-05-20T04:14:41.828Z,29.80
2019-05-20T04:17:12.425Z,29.80
2019-05-20T04:19:44.021Z,26.17
2019-05-20T04:22:14.435Z,20.87
2019-05-20T04:24:44.862Z,24.17
2019-05-20T04:27:15.391Z,26.47
2019-05-20T04:29:45.926Z,25.20
2019-05-20T04:32:16.355Z,29.53
2019-05-20T04:34:46.785Z,24.07
2019-05-20T04:37:17.368Z,28.40
2019-05-20T04:39:47.839Z,27.40
2019-05-20T04:42:18.263Z,25.47
2019-05-20T04:44:48.692Z,30.07
2019-05-20T04:47:19.200Z,27.27
2019-05-20T04:49:49.752Z,29.37
2019-05-20T04:52:20.174Z,27.03
2019-05-20T04:54:50.610Z,33.17
2019-05-20T04:57:21.148Z,30.73
2019-05-20T04:59:51.764Z,30.13
2019-05-20T05:02:22.191Z,28.73
2019-05-20T05:04:52.791Z,29.23
2019-05-20T05:07:25.137Z,29.97
2019-05-20T05:09:55.766Z,30.80
2019-05-20T05:12:26.258Z,29.70
2019-05-20T05:14:56.783Z,26.90
2019-05-20T05:17:27.312Z,28.97
2019-05-20T05:19:58.759Z,28.57
2019-05-20T05:22:29.289Z,32.43
2019-05-20T05:24:59.718Z,30.93
2019-05-20T05:27:30.145Z,26.97
2019-05-20T05:30:01.626Z,34.17
2019-05-20T05:32:45.063Z,27.83
2019-05-20T05:35:19.141Z,27.23
2019-05-20T05:37:49.747Z,28.00
2019-05-20T05:40:21.865Z,29.63
2019-05-20T05:42:52.367Z,24.47
2019-05-20T05:45:29.186Z,28.40
2019-05-20T05:47:58.659Z,24.87
2019-05-20T05:50:31.634Z,28.93
2019-05-20T05:53:02.070Z,26.53
2019-05-20T05:55:32.488Z,28.07
2019-05-20T05:58:02.921Z,27.40
2019-05-20T06:00:33.350Z,33.27
2019-05-20T06:03:03.791Z,32.40
2019-05-20T06:05:34.201Z,30.77
2019-05-20T06:08:04.864Z,29.33
2019-05-20T06:10:36.031Z,32.50
2019-05-20T06:13:06.611Z,28.47
2019-05-20T06:15:37.031Z,32.10
2019-05-20T06:18:07.466Z,31.00
2019-05-20T06:20:38.912Z,26.83
2019-05-20T06:23:09.347Z,25.70
2019-05-20T06:25:39.772Z,32.23
2019-05-20T06:28:10.292Z,28.43
2019-05-20T06:30:44.347Z,28.50
2019-05-20T06:33:15.038Z,28.60
2019-05-20T06:35:45.670Z,28.90
2019-05-20T06:38:35.183Z,33.37
2019-05-20T06:41:07.236Z,27.70
2019-05-20T06:43:37.022Z,29.87
2019-05-20T06:46:07.655Z,25.33
2019-05-20T06:48:38.083Z,22.67
2019-05-20T06:51:09.545Z,25.03
2019-05-20T06:53:39.976Z,24.53
2019-05-20T06:56:09.429Z,21.63
2019-05-20T06:58:40.035Z,21.97
2019-05-20T07:01:10.543Z,18.37
2019-05-20T07:03:40.241Z,15.80
2019-05-20T07:06:11.201Z,17.90
2019-05-20T07:08:41.995Z,15.30
2019-05-20T07:11:12.775Z,14.07
2019-05-20T07:13:43.243Z,13.40
2019-05-20T07:16:13.723Z,13.40
2019-05-20T07:18:44.125Z,11.97
2019-05-20T07:21:14.553Z,13.73
2019-05-20T07:23:45.073Z,15.17
2019-05-20T07:26:15.631Z,16.83
2019-05-20T07:28:46.059Z,11.50
2019-05-20T07:31:16.817Z,9.80
2019-05-20T07:33:47.408Z,11.30
2019-05-20T07:36:18.390Z,11.77
2019-05-20T07:38:49.021Z,9.70
2019-05-20T07:41:20.052Z,10.53
2019-05-20T07:43:50.549Z,10.38
2019-05-20T07:46:21.186Z,9.85
2019-05-20T07:48:52.343Z,8.80
2019-05-20T07:51:24.594Z,9.63
2019-05-20T07:53:56.466Z,12.25
2019-05-20T07:56:29.543Z,10.25
2019-05-20T07:59:02.707Z,8.25
2019-05-20T08:01:33.553Z,8.85
2019-05-20T08:04:04.022Z,11.50
2019-05-20T08:06:34.631Z,7.62
2019-05-20T08:09:06.556Z,9.78
2019-05-20T08:11:37.434Z,10.20
2019-05-20T08:14:08.036Z,8.00
2019-05-20T08:16:38.491Z,9.58
2019-05-20T08:19:08.918Z,10.18
2019-05-20T08:21:40.371Z,7.45
2019-05-20T08:24:10.899Z,9.73
2019-05-20T08:26:41.368Z,10.00
2019-05-20T08:29:11.931Z,11.45
2019-05-20T08:31:42.425Z,10.32
2019-05-20T08:34:12.909Z,9.25
2019-05-20T08:36:43.344Z,8.48
2019-05-20T08:39:13.835Z,9.15
2019-05-20T08:41:44.295Z,9.85
2019-05-20T08:44:14.767Z,7.33
2019-05-20T08:46:45.250Z,9.80
2019-05-20T08:49:17.119Z,8.40
2019-05-20T08:51:48.567Z,9.98
2019-05-20T08:54:19.096Z,9.88
2019-05-20T08:56:49.607Z,7.53
2019-05-20T08:59:20.092Z,9.30
2019-05-20T09:01:50.573Z,9.83
2019-05-20T09:04:21.001Z,10.05
2019-05-20T09:06:51.443Z,9.60
2019-05-20T09:09:21.927Z,10.72
2019-05-20T09:11:52.712Z,8.33
2019-05-20T09:14:23.402Z,6.70
2019-05-20T09:16:53.842Z,9.60
2019-05-20T09:19:24.319Z,7.05
2019-05-20T09:21:54.811Z,8.00
2019-05-20T09:24:25.237Z,11.33
2019-05-20T09:26:55.668Z,7.40
2019-05-20T09:29:32.896Z,7.83
2019-05-20T09:32:03.996Z,7.42
2019-05-20T09:34:34.539Z,5.97
2019-05-20T09:37:05.071Z,7.30
2019-05-20T09:39:35.474Z,7.62
2019-05-20T09:42:05.905Z,6.92
2019-05-20T09:44:36.342Z,6.85
2019-05-20T09:47:06.802Z,5.60
2019-05-20T09:49:37.318Z,7.75
2019-05-20T09:52:07.817Z,7.47
2019-05-20T09:54:38.245Z,5.70
2019-05-20T09:57:08.675Z,5.25
2019-05-20T09:59:43.490Z,8.95
2019-05-20T10:02:11.171Z,6.72
2019-05-20T10:04:41.582Z,6.45
2019-05-20T10:07:12.027Z,6.83
2019-05-20T10:09:42.445Z,6.70
2019-05-20T10:12:13.079Z,7.35
2019-05-20T10:14:43.652Z,10.28
2019-05-20T10:17:14.306Z,9.03
2019-05-20T10:19:44.773Z,8.30
2019-05-20T10:22:15.196Z,6.58
2019-05-20T10:24:45.623Z,9.15
2019-05-20T10:27:16.049Z,7.05
2019-05-20T10:29:46.585Z,7.47
2019-05-20T10:32:17.029Z,11.90
2019-05-20T10:34:47.480Z,7.60
2019-05-20T10:37:17.965Z,6.47
2019-05-20T10:39:48.389Z,6.47
2019-05-20T10:42:18.818Z,9.78
2019-05-20T10:44:49.247Z,9.25
2019-05-20T10:47:19.693Z,6.42
2019-05-20T10:49:51.168Z,5.90
2019-05-20T10:52:21.822Z,7.53
2019-05-20T10:54:52.386Z,7.65
2019-05-20T10:57:22.836Z,5.97
2019-05-20T10:59:53.332Z,7.72
2019-05-20T11:02:23.794Z,7.35
2019-05-20T11:04:54.356Z,5.40
2019-05-20T11:07:25.033Z,7.72
2019-05-20T11:09:55.459Z,7.70
2019-05-20T11:12:25.932Z,9.15
2019-05-20T11:14:56.461Z,6.92
2019-05-20T11:17:26.937Z,7.75
2019-05-20T11:19:58.455Z,4.72
2019-05-20T11:22:28.914Z,6.17
2019-05-20T11:24:59.354Z,9.18
2019-05-20T11:27:29.984Z,4.97
2019-05-20T11:30:00.413Z,5.95
2019-05-20T11:32:30.830Z,4.22
2019-05-20T11:35:01.443Z,7.28
2019-05-20T11:37:32.102Z,4.55
2019-05-20T11:40:02.966Z,10.43
2019-05-20T11:42:33.879Z,9.60
2019-05-20T11:45:04.310Z,6.35
2019-05-20T11:47:34.744Z,15.90
2019-05-20T11:50:05.919Z,22.67
2019-05-20T11:52:38.295Z,21.55
2019-05-20T11:55:08.958Z,75.62
2019-05-20T11:57:39.407Z,14.30
2019-05-20T12:00:15.371Z,6.25
2019-05-20T12:02:45.793Z,7.05
2019-05-20T12:05:16.321Z,4.90
2019-05-20T12:07:46.753Z,5.33
2019-05-20T12:10:17.451Z,5.30
2019-05-20T12:12:47.983Z,4.85
2019-05-20T12:15:18.651Z,6.30
2019-05-20T12:17:49.074Z,3.98
2019-05-20T12:20:19.875Z,4.53
2019-05-20T12:22:50.401Z,6.55
2019-05-20T12:25:20.862Z,5.95
2019-05-20T12:27:51.300Z,5.87
2019-05-20T12:30:23.267Z,3.55
2019-05-20T12:33:17.118Z,4.37
2019-05-20T12:35:27.066Z,4.22
2019-05-20T12:37:57.492Z,4.95
2019-05-20T12:40:27.932Z,7.10
2019-05-20T12:42:58.357Z,5.58
2019-05-20T12:45:28.805Z,4.87
2019-05-20T12:47:59.211Z,6.67
2019-05-20T12:50:30.680Z,5.22
2019-05-20T12:53:01.092Z,4.53
2019-05-20T12:55:31.559Z,3.27
2019-05-20T12:58:02.046Z,6.33
2019-05-20T13:00:33.538Z,3.40
2019-05-20T13:03:03.927Z,6.03
2019-05-20T13:05:34.353Z,4.30
2019-05-20T13:08:05.160Z,3.62
2019-05-20T13:10:36.125Z,4.50
2019-05-20T13:13:06.595Z,3.87
2019-05-20T13:15:37.227Z,5.55
2019-05-20T13:18:07.719Z,3.95
2019-05-20T13:20:38.450Z,6.28
2019-05-20T13:23:11.460Z,6.20
2019-05-20T13:25:41.625Z,5.35
2019-05-20T13:28:12.074Z,5.62
2019-05-20T13:30:42.511Z,7.80
2019-05-20T13:33:12.940Z,3.85
2019-05-20T13:35:43.653Z,6.55
2019-05-20T13:38:14.257Z,4.22
2019-05-20T13:40:47.083Z,3.80
2019-05-20T13:43:17.608Z,6.85
2019-05-20T13:45:48.573Z,5.28
2019-05-20T13:48:19.103Z,5.90
2019-05-20T13:50:52.698Z,7.22
2019-05-20T13:53:23.283Z,5.35
2019-05-20T13:55:53.748Z,6.35
2019-05-20T13:58:24.219Z,7.10
2019-05-20T14:00:54.689Z,6.15
2019-05-20T14:03:25.126Z,4.20
2019-05-20T14:05:55.555Z,7.58
2019-05-20T14:08:25.983Z,5.15
2019-05-20T14:11:04.753Z,4.62
2019-05-20T14:13:34.472Z,4.65
2019-05-20T14:16:07.034Z,4.80
2019-05-20T14:18:37.519Z,5.80
2019-05-20T14:21:08.158Z,4.35
2019-05-20T14:23:38.579Z,3.50
2019-05-20T14:26:09.007Z,4.75
2019-05-20T14:28:39.589Z,4.78
2019-05-20T14:31:10.073Z,4.15
2019-05-20T14:33:40.496Z,3.92
2019-05-20T14:36:11.012Z,6.60
2019-05-20T14:38:41.857Z,4.50
2019-05-20T14:41:21.430Z,5.08
2019-05-20T14:43:45.775Z,3.72
2019-05-20T14:46:16.209Z,4.00
2019-05-20T14:48:46.641Z,3.10
2019-05-20T14:51:17.272Z,2.55
2019-05-20T14:53:47.695Z,3.80
2019-05-20T14:56:18.125Z,3.55
2019-05-20T14:58:48.549Z,2.80
2019-05-20T15:01:19.024Z,4.30
2019-05-20T15:03:49.537Z,4.17
2019-05-20T15:06:19.950Z,3.75
2019-05-20T15:08:50.662Z,3.35
2019-05-20T15:11:37.054Z,2.27
2019-05-20T15:13:54.381Z,3.55
2019-05-20T15:16:25.120Z,6.75
2019-05-20T15:18:55.549Z,3.65
2019-05-20T15:21:29.443Z,4.87
2019-05-20T15:23:58.054Z,4.70
2019-05-20T15:26:28.467Z,2.87
2019-05-20T15:28:58.948Z,3.50
2019-05-20T15:31:29.493Z,3.70
2019-05-20T15:33:59.980Z,3.10
2019-05-20T15:36:30.395Z,3.52
2019-05-20T15:39:00.916Z,3.92
2019-05-20T15:41:33.353Z,4.35
2019-05-20T15:44:03.979Z,5.87
2019-05-20T15:46:34.512Z,3.83
2019-05-20T15:49:06.563Z,4.12
2019-05-20T15:51:38.224Z,2.70
2019-05-20T15:54:08.695Z,3.50
2019-05-20T15:56:39.177Z,4.00
2019-05-20T15:59:09.650Z,6.03
2019-05-20T16:01:41.091Z,3.12
2019-05-20T16:04:11.738Z,4.62
2019-05-20T16:06:42.392Z,4.20
2019-05-20T16:09:17.073Z,2.90
2019-05-20T16:11:46.089Z,5.30
2019-05-20T16:14:16.722Z,5.33
2019-05-20T16:16:47.456Z,7.37
2019-05-20T16:19:17.887Z,4.67
2019-05-20T16:21:49.659Z,5.47
2019-05-20T16:24:20.167Z,4.93
2019-05-20T16:26:50.594Z,4.50
2019-05-20T16:29:21.330Z,6.60
2019-05-20T16:31:51.858Z,5.57
2019-05-20T16:34:22.500Z,6.40
2019-05-20T16:36:52.916Z,6.27
2019-05-20T16:39:23.342Z,3.03
2019-05-20T16:41:53.773Z,4.10
2019-05-20T16:44:25.221Z,6.27
2019-05-20T16:46:55.870Z,4.00
2019-05-20T16:49:26.289Z,5.00
2019-05-20T16:51:56.730Z,5.83
2019-05-20T16:54:27.668Z,7.10
2019-05-20T16:56:58.222Z,4.67
2019-05-20T16:59:29.421Z,4.17
2019-05-20T17:01:59.847Z,5.80
2019-05-20T17:04:30.276Z,6.27
2019-05-20T17:07:00.912Z,7.73
2019-05-20T17:09:31.708Z,8.07
2019-05-20T17:12:02.499Z,5.33
2019-05-20T17:14:33.066Z,8.73
2019-05-20T17:17:04.638Z,7.47
2019-05-20T17:19:35.098Z,6.57
2019-05-20T17:22:05.995Z,8.30
2019-05-20T17:24:36.456Z,7.77
2019-05-20T17:27:07.096Z,6.67
2019-05-20T17:29:37.665Z,7.60
2019-05-20T17:32:08.045Z,6.80
2019-05-20T17:34:39.699Z,7.90
2019-05-20T17:37:10.332Z,6.03
2019-05-20T17:39:40.746Z,9.13
2019-05-20T17:42:11.175Z,8.00
2019-05-20T17:44:41.617Z,6.83
2019-05-20T17:47:12.346Z,7.47
2019-05-20T17:49:42.979Z,7.63
2019-05-20T17:52:13.396Z,8.53
2019-05-20T17:54:43.834Z,6.93
2019-05-20T17:57:14.435Z,10.37
2019-05-20T17:59:44.895Z,6.67
2019-05-20T18:02:15.420Z,10.90
2019-05-20T18:04:46.052Z,10.63
2019-05-20T18:07:16.486Z,8.23
2019-05-20T18:09:49.580Z,6.93
2019-05-20T18:12:20.125Z,6.83
2019-05-20T18:14:55.038Z,6.90
2019-05-20T18:17:25.807Z,7.20
2019-05-20T18:19:56.403Z,9.37
2019-05-20T18:22:26.007Z,8.33
2019-05-20T18:24:56.611Z,9.77
2019-05-20T18:27:27.610Z,9.30
2019-05-20T18:29:58.104Z,7.87
2019-05-20T18:32:28.574Z,6.13
2019-05-20T18:34:59.058Z,13.43
2019-05-20T18:37:28.813Z,4.60
2019-05-20T18:40:12.866Z,10.00
2019-05-20T18:42:29.686Z,11.03
2019-05-20T18:44:59.132Z,7.20
2019-05-20T18:47:29.555Z,7.43
2019-05-20T18:49:59.984Z,9.23
2019-05-20T18:52:30.415Z,12.40
2019-05-20T18:55:00.837Z,9.30
2019-05-20T18:57:31.443Z,11.03
2019-05-20T19:00:02.097Z,8.83
2019-05-20T19:02:32.798Z,7.63
2019-05-20T19:05:03.263Z,7.83
2019-05-20T19:07:33.689Z,9.70
2019-05-20T19:10:03.717Z,8.57
2019-05-20T19:12:35.710Z,8.03
2019-05-20T19:15:06.989Z,8.30
2019-05-20T19:17:37.834Z,10.63
2019-05-20T19:20:08.691Z,9.37
2019-05-20T19:22:39.220Z,8.10
2019-05-20T19:25:09.884Z,8.53
2019-05-20T19:27:40.383Z,11.10
2019-05-20T19:30:11.642Z,9.10
2019-05-20T19:32:42.071Z,9.90
2019-05-20T19:35:12.790Z,11.73
2019-05-20T19:37:43.685Z,13.30
2019-05-20T19:40:14.360Z,16.37
2019-05-20T19:42:44.888Z,10.43
2019-05-20T19:45:15.523Z,11.73
2019-05-20T19:47:45.950Z,13.23
2019-05-20T19:50:17.408Z,14.53
2019-05-20T19:52:48.033Z,11.43
2019-05-20T19:55:19.179Z,12.83
2019-05-20T19:57:52.685Z,13.30
2019-05-20T20:00:23.204Z,12.67
2019-05-20T20:02:53.631Z,15.10
2019-05-20T20:05:24.330Z,13.23
2019-05-20T20:07:54.895Z,12.43
2019-05-20T20:10:26.345Z,14.13
2019-05-20T20:12:56.779Z,11.23
2019-05-20T20:15:27.276Z,14.03
2019-05-20T20:17:57.776Z,14.20
2019-05-20T20:20:28.362Z,13.00
2019-05-20T20:22:58.946Z,12.57
2019-05-20T20:25:29.419Z,12.17
2019-05-20T20:27:59.857Z,14.17
2019-05-20T20:30:30.375Z,14.23
2019-05-20T20:33:00.821Z,16.67
2019-05-20T20:35:38.078Z,16.47
2019-05-20T20:38:03.294Z,18.17
2019-05-20T20:40:34.746Z,18.70
2019-05-20T20:43:05.172Z,16.03
2019-05-20T20:45:35.700Z,20.40
2019-05-20T20:48:06.272Z,19.73
2019-05-20T20:50:36.832Z,17.67
2019-05-20T20:53:07.292Z,21.20
2019-05-20T20:55:37.869Z,16.60
2019-05-20T20:58:08.346Z,16.30
2019-05-20T21:00:38.059Z,20.20
2019-05-20T21:03:07.569Z,18.30
2019-05-20T21:05:38.090Z,18.80
2019-05-20T21:08:08.725Z,20.90
2019-05-20T21:10:39.150Z,15.73
2019-05-20T21:13:09.735Z,21.60
2019-05-20T21:15:40.319Z,20.13
2019-05-20T21:18:10.891Z,22.20
2019-05-20T21:20:41.743Z,22.17
2019-05-20T21:23:12.309Z,19.13
2019-05-20T21:25:42.851Z,23.50
2019-05-20T21:28:13.292Z,22.43
2019-05-20T21:30:43.797Z,22.50
2019-05-20T21:33:14.243Z,24.93
2019-05-20T21:35:45.441Z,27.07
2019-05-20T21:38:16.206Z,26.87
2019-05-20T21:40:47.655Z,26.23
2019-05-20T21:43:17.162Z,25.67
2019-05-20T21:45:47.585Z,31.03
2019-05-20T21:48:19.211Z,27.87
2019-05-20T21:50:49.840Z,30.90
2019-05-20T21:53:20.300Z,27.23
2019-05-20T21:55:50.751Z,31.83
2019-05-20T21:58:21.159Z,29.70
2019-05-20T22:00:54.589Z,33.23
2019-05-20T22:03:25.447Z,36.50
2019-05-20T22:05:56.030Z,34.33
2019-05-20T22:08:26.445Z,37.77
2019-05-20T22:10:57.897Z,32.40
2019-05-20T22:13:27.390Z,32.07
2019-05-20T22:15:57.828Z,33.37
2019-05-20T22:18:28.405Z,36.27
2019-05-20T22:20:59.059Z,36.17
2019-05-20T22:23:43.551Z,38.53
2019-05-20T22:26:13.982Z,38.70
2019-05-20T22:28:44.402Z,39.47
2019-05-20T22:31:15.858Z,40.90
2019-05-20T22:33:46.283Z,42.53
2019-05-20T22:36:16.913Z,41.37
2019-05-20T22:38:49.683Z,41.63
2019-05-20T22:41:20.194Z,40.30
2019-05-20T22:43:50.729Z,38.27
2019-05-20T22:46:21.303Z,40.50
2019-05-20T22:48:51.709Z,35.77
2019-05-20T22:51:23.250Z,46.17
2019-05-20T22:53:53.791Z,36.07
2019-05-20T22:56:24.222Z,39.43
2019-05-20T22:58:54.646Z,34.33
2019-05-20T23:01:25.086Z,38.20
2019-05-20T23:03:56.708Z,39.10
2019-05-20T23:06:27.261Z,38.47
2019-05-20T23:08:57.763Z,37.27
2019-05-20T23:11:28.215Z,39.90
2019-05-20T23:13:58.647Z,39.03
2019-05-20T23:16:29.070Z,41.63
2019-05-20T23:18:59.564Z,45.37
2019-05-20T23:21:30.195Z,41.67
2019-05-20T23:24:00.660Z,39.73
2019-05-20T23:26:31.088Z,39.33
2019-05-20T23:29:02.649Z,34.70
2019-05-20T23:31:33.065Z,38.73
2019-05-20T23:34:12.451Z,43.27
2019-05-20T23:36:35.554Z,42.30
2019-05-20T23:39:07.579Z,39.50
2019-05-20T23:41:38.057Z,43.57
2019-05-20T23:44:08.476Z,37.33
2019-05-20T23:46:38.903Z,41.37
2019-05-20T23:49:09.329Z,40.00
2019-05-20T23:51:39.757Z,45.47
2019-05-20T23:54:10.247Z,45.47
2019-05-20T23:56:40.716Z,44.87
2019-05-20T23:59:11.139Z,42.83
